KFHB

Fernandina Beach Municipal Airport

Fernandina Beach, Florida, USA
METAR KFHB 212335Z AUTO 25005KT 10SM CLR 29/23 A2984 RMK AO2 T02930227
Observed Flight Rules
Jun-21 @ 23:35 UTC (20 minutes ago) Visual Flight Rules
Wind Visibility Clouds
250° at 5 knots 10 miles
  • Clear skies
Temperatures Readings
Current 29°C / 84°F
Dewpoint 23°C / 73°F
Humidity 70%
Altimeter 29.84" Hg
Pressure 1010 hPa
Elevation 5
METAR KFHB 212335Z AUTO 25005KT 10SM CLR 29/23 A2984 RMK AO2 T02930227
Observed Flight Rules
Jun-21 @ 23:35 UTC
(20 minutes ago)
VFR
Wind Visibility
250° at 5 knots 10 miles
Clouds
  • Clear skies
Temperature Dewpoint
29°C / 84°F 23°C / 73°F
Humidity Altimeter Pressure
70% 29.84" Hg 1010 hPa